»·PEaware :: N79NA KSDM-KVNY

N79NA :: KSDM-KVNY

FLIGHT INFORMATION

Flight Status: Arrived
Operator: Privately registered:
United States
More flights under this callsign
Pilot: Carlos A. (16805)
Aircraft: PIPER PA-44 SEMINOLE
(PA44)
More flights by this aircraft type
Origin: KSDM Brown Mun
United States
Destination: KVNY Van Nuys
United States
More flights between these airports :: More routes between these airports
Route: +MZB OCN V23 POPPR SMO125 SMO SMO317 CANOG
File this flight plan on PilotEdge
Remarks:
Altitude:
(Current/Filed)
6,000ft
Speed:
(Current/Filed)
110kts
Departed: 12-Jan-18 12:51 PM
Arrived: 12-Jan-18 02:34 PM
Distance/Time
Traveled:
124nm/1:43
Distance/Time
To Go:
Arrived

Flight Plot

Page will automatically refresh every two minutes.

Flight plan parsing failed; only flown route is shown


Map Options




Map Legend


Flown Route
Filed Route
Departure Airport
Arrival Airport
Navaid (VOR, NDB)
Fix

Horizontal Profiles

Position Reports

Time Latitude Longitude Heading Altitude Ground
Speed
12-Jan-18 12:09 32.571172 -116.992325 110 528ft 0kts
12-Jan-18 12:10 32.571172 -116.992325 110 528ft 0kts
12-Jan-18 12:11 32.571172 -116.992325 110 528ft 0kts
12-Jan-18 12:12 32.571172 -116.992325 110 528ft 0kts
12-Jan-18 12:13 32.571171 -116.992324 110 528ft 0kts
12-Jan-18 12:14 32.571171 -116.992323 110 528ft 0kts
12-Jan-18 12:15 32.571171 -116.992323 110 528ft 0kts
12-Jan-18 12:16 32.571171 -116.992323 110 528ft 0kts
12-Jan-18 12:17 32.571171 -116.992322 110 528ft 0kts
12-Jan-18 12:18 32.571170 -116.992321 110 528ft 0kts
12-Jan-18 12:19 32.571170 -116.992320 110 528ft 0kts
12-Jan-18 12:20 32.571170 -116.992319 110 528ft 0kts
12-Jan-18 12:21 32.571169 -116.992318 110 528ft 0kts
12-Jan-18 12:22 32.571169 -116.992317 110 528ft 0kts
12-Jan-18 12:23 32.571169 -116.992317 110 528ft 0kts
12-Jan-18 12:24 32.571169 -116.992316 110 528ft 0kts
12-Jan-18 12:25 32.571168 -116.992315 110 528ft 0kts
12-Jan-18 12:26 32.571168 -116.992314 110 528ft 0kts
12-Jan-18 12:27 32.571162 -116.992296 110 528ft 0kts
12-Jan-18 12:28 32.571207 -116.992201 21 528ft 0kts
12-Jan-18 12:29 32.571209 -116.992200 21 528ft 0kts
12-Jan-18 12:30 32.571211 -116.992199 21 528ft 0kts
12-Jan-18 12:31 32.571214 -116.992198 21 528ft 0kts
12-Jan-18 12:32 32.571216 -116.992197 21 528ft 0kts
12-Jan-18 12:33 32.571218 -116.992196 21 528ft 0kts
12-Jan-18 12:34 32.571220 -116.992195 21 528ft 0kts
12-Jan-18 12:35 32.571222 -116.992194 20 528ft 0kts
12-Jan-18 12:36 32.571224 -116.992193 20 528ft 0kts
12-Jan-18 12:37 32.571226 -116.992192 20 528ft 0kts
12-Jan-18 12:38 32.571847 -116.991440 81 528ft 5kts
12-Jan-18 12:39 32.571290 -116.988298 98 528ft 27kts
12-Jan-18 12:40 32.570836 -116.984527 97 528ft 4kts
12-Jan-18 12:41 32.570291 -116.978225 97 528ft 21kts
12-Jan-18 12:42 32.569877 -116.973324 95 528ft 15kts
12-Jan-18 12:43 32.569582 -116.969826 94 528ft 0kts
12-Jan-18 12:44 32.569582 -116.969822 94 528ft 0kts
12-Jan-18 12:45 32.569581 -116.969813 93 528ft 0kts
12-Jan-18 12:46 32.569581 -116.969805 93 528ft 0kts
12-Jan-18 12:47 32.569580 -116.969802 93 528ft 0kts
12-Jan-18 12:48 32.569580 -116.969801 93 528ft 0kts
12-Jan-18 12:49 32.569580 -116.969800 93 528ft 0kts
12-Jan-18 12:50 32.569580 -116.969799 93 528ft 0kts
12-Jan-18 12:51 32.569580 -116.969797 93 528ft 0kts
12-Jan-18 12:52 32.569580 -116.969796 93 528ft 0kts
12-Jan-18 12:53 32.569575 -116.969725 95 528ft 0kts
12-Jan-18 12:54 32.569461 -116.968447 83 528ft 8kts
12-Jan-18 12:55 32.571088 -116.967970 359 528ft 0kts
12-Jan-18 12:56 32.571540 -116.967979 330 528ft 7kts
12-Jan-18 12:57 32.572678 -116.979354 275 746ft 78kts
12-Jan-18 12:58 32.583446 -117.008004 291 1599ft 107kts
12-Jan-18 12:59 32.594885 -117.039417 290 2323ft 104kts
12-Jan-18 13:00 32.609389 -117.071162 294 2996ft 126kts
12-Jan-18 13:01 32.626838 -117.110673 294 2975ft 136kts
12-Jan-18 13:02 32.641849 -117.149008 292 3524ft 124kts
12-Jan-18 13:03 32.659181 -117.184525 298 4255ft 127kts
12-Jan-18 13:04 32.688210 -117.205778 330 4677ft 116kts
12-Jan-18 13:05 32.719288 -117.217445 349 5402ft 121kts
12-Jan-18 13:06 32.753368 -117.221481 347 5989ft 124kts
12-Jan-18 13:07 32.791582 -117.225929 348 5911ft 152kts
12-Jan-18 13:08 32.828433 -117.246124 332 5902ft 149kts
12-Jan-18 13:09 32.866680 -117.263185 339 5778ft 147kts
12-Jan-18 13:10 32.902814 -117.280625 337 5699ft 133kts
12-Jan-18 13:11 32.939226 -117.292705 341 5777ft 129kts
12-Jan-18 13:12 32.974803 -117.307993 337 5877ft 135kts
12-Jan-18 13:13 33.011867 -117.320571 355 6010ft 140kts
12-Jan-18 13:14 33.048822 -117.333898 342 5996ft 137kts
12-Jan-18 13:15 33.085564 -117.351146 338 5886ft 139kts
12-Jan-18 13:16 33.122569 -117.368095 356 5734ft 149kts
12-Jan-18 13:17 33.158236 -117.381680 340 5988ft 134kts
12-Jan-18 13:18 33.194088 -117.398023 333 6026ft 142kts
12-Jan-18 13:19 33.231625 -117.414554 347 6068ft 147kts
12-Jan-18 13:20 33.265269 -117.443937 314 5868ft 155kts
12-Jan-18 13:21 33.293357 -117.482214 312 5946ft 150kts
12-Jan-18 13:22 33.323042 -117.517155 307 5886ft 147kts
12-Jan-18 13:23 33.349740 -117.554056 316 5897ft 146kts
12-Jan-18 13:24 33.381281 -117.584908 322 5946ft 145kts
12-Jan-18 13:25 33.407948 -117.621827 311 5845ft 149kts
12-Jan-18 13:26 33.437798 -117.656274 314 5825ft 146kts
12-Jan-18 13:27 33.468165 -117.689199 317 5826ft 146kts
12-Jan-18 13:28 33.496724 -117.723969 326 5982ft 152kts
12-Jan-18 13:29 33.532689 -117.751303 326 5888ft 152kts
12-Jan-18 13:30 33.566200 -117.780958 323 5859ft 144kts
12-Jan-18 13:31 33.600964 -117.809047 320 5555ft 160kts
12-Jan-18 13:32 33.633717 -117.839841 323 5788ft 143kts
12-Jan-18 13:33 33.666828 -117.868205 323 5917ft 147kts
12-Jan-18 13:34 33.692395 -117.906159 288 5857ft 155kts
12-Jan-18 13:35 33.707044 -117.954530 287 5799ft 163kts
12-Jan-18 13:36 33.720054 -118.004621 287 5688ft 154kts
12-Jan-18 13:37 33.736519 -118.051148 298 5599ft 153kts
12-Jan-18 13:38 33.754310 -118.095372 300 5776ft 150kts
12-Jan-18 13:39 33.769680 -118.141594 293 6129ft 149kts
12-Jan-18 13:40 33.787073 -118.189423 292 5822ft 157kts
12-Jan-18 13:41 33.802253 -118.236823 292 5825ft 144kts
12-Jan-18 13:42 33.817376 -118.282817 292 5810ft 149kts
12-Jan-18 13:43 33.833273 -118.328657 293 5762ft 148kts
12-Jan-18 13:44 33.860623 -118.360390 336 5695ft 145kts
12-Jan-18 13:45 33.896431 -118.383015 323 5844ft 145kts
12-Jan-18 13:46 33.929064 -118.411988 323 5877ft 147kts
12-Jan-18 13:47 33.966072 -118.431059 343 5815ft 146kts
12-Jan-18 13:48 34.003873 -118.448797 314 5795ft 152kts
12-Jan-18 13:49 34.034704 -118.484372 318 5800ft 153kts
12-Jan-18 13:50 34.071419 -118.511529 2 5587ft 158kts
12-Jan-18 13:51 34.114006 -118.503413 3 5742ft 148kts
12-Jan-18 13:52 34.157086 -118.496808 0 5748ft 151kts
12-Jan-18 13:53 34.199832 -118.506604 339 5155ft 161kts
12-Jan-18 13:54 34.241905 -118.522412 342 4875ft 151kts
12-Jan-18 13:55 34.283955 -118.537890 338 4894ft 150kts
12-Jan-18 13:56 34.325218 -118.552958 336 4816ft 165kts
12-Jan-18 13:57 34.369118 -118.561886 356 4910ft 155kts
12-Jan-18 13:58 34.412613 -118.564724 355 4860ft 147kts
12-Jan-18 13:59 34.451379 -118.568623 342 4930ft 141kts
12-Jan-18 14:00 34.489564 -118.582402 344 4976ft 144kts
12-Jan-18 14:01 34.517051 -118.554597 63 5036ft 151kts
12-Jan-18 14:02 34.495471 -118.524118 155 5047ft 132kts
12-Jan-18 14:03 34.459830 -118.513823 178 4915ft 125kts
12-Jan-18 14:04 34.425613 -118.510274 174 4926ft 123kts
12-Jan-18 14:05 34.390920 -118.508257 179 4907ft 121kts
12-Jan-18 14:06 34.358679 -118.503756 172 4410ft 115kts
12-Jan-18 14:07 34.328212 -118.501800 178 3717ft 106kts
12-Jan-18 14:08 34.300462 -118.498923 176 2913ft 95kts
12-Jan-18 14:09 34.274843 -118.496359 179 2337ft 93kts
12-Jan-18 14:10 34.248993 -118.494158 176 1739ft 93kts
12-Jan-18 14:11 34.223627 -118.491795 169 1048ft 89kts
12-Jan-18 14:12 34.199405 -118.489664 174 1049ft 108kts
12-Jan-18 14:13 34.173513 -118.486992 177 2489ft 91kts
12-Jan-18 14:14 34.147044 -118.483991 182 3650ft 97kts
12-Jan-18 14:15 34.119317 -118.480322 170 4841ft 102kts
12-Jan-18 14:16 34.090362 -118.478560 165 5928ft 116kts
12-Jan-18 14:17 34.074122 -118.491078 327 6168ft 115kts
12-Jan-18 14:18 34.113091 -118.495097 351 5846ft 134kts
12-Jan-18 14:19 34.148303 -118.501068 351 5796ft 118kts
12-Jan-18 14:20 34.177812 -118.504427 352 5868ft 138kts
12-Jan-18 14:21 34.216779 -118.508817 352 5868ft 141kts
12-Jan-18 14:22 34.256385 -118.514191 352 5765ft 143kts
12-Jan-18 14:23 34.295386 -118.519365 350 5817ft 143kts
12-Jan-18 14:24 34.333910 -118.529121 344 5823ft 141kts
12-Jan-18 14:25 34.371761 -118.539649 347 5764ft 138kts
12-Jan-18 14:26 34.408665 -118.552293 340 5840ft 138kts
12-Jan-18 14:27 34.445718 -118.564702 346 6064ft 140kts
12-Jan-18 14:28 34.485441 -118.572113 356 6086ft 147kts
12-Jan-18 14:29 34.524280 -118.564069 55 5890ft 163kts
12-Jan-18 14:30 34.499739 -118.529480 156 5937ft 149kts
12-Jan-18 14:31 34.459653 -118.512942 174 5049ft 152kts
12-Jan-18 14:32 34.423339 -118.510205 175 4943ft 118kts
12-Jan-18 14:33 34.390237 -118.505677 180 4861ft 116kts
12-Jan-18 14:34 34.357981 -118.503047 176 4283ft 115kts
12-Jan-18 14:35 34.326590 -118.501109 175 3670ft 110kts
12-Jan-18 14:36 34.295918 -118.498837 172 2632ft 107kts
12-Jan-18 14:37 34.266534 -118.495756 168 1902ft 100kts
12-Jan-18 14:38 34.239958 -118.493501 169 1513ft 91kts
12-Jan-18 14:39 34.215966 -118.490920 175 839ft 74kts
12-Jan-18 14:40 34.208476 -118.490857 222 804ft 0kts
12-Jan-18 14:41 34.207986 -118.491300 195 804ft 10kts
12-Jan-18 14:42 34.206477 -118.492455 274 804ft 7kts
12-Jan-18 14:43 34.206621 -118.492704 138 804ft 0kts
12-Jan-18 14:44 34.206621 -118.492704 138 804ft 0kts

Navigation Log

Ident Type
Flight plan parsing failed, navigation log unavailable